createdAt,value
2023-04-16T00:00:46.104Z,69.90
2023-04-16T00:01:46.144Z,66.80
2023-04-16T00:02:46.324Z,67.40
2023-04-16T00:03:46.312Z,64.60
2023-04-16T00:04:46.049Z,65.70
2023-04-16T00:05:46.011Z,67.60
2023-04-16T00:06:46.043Z,69.20
2023-04-16T00:07:46.967Z,71.30
2023-04-16T00:08:46.007Z,63.40
2023-04-16T00:09:46.142Z,67.20
2023-04-16T00:10:46.820Z,66.80
2023-04-16T00:11:45.949Z,66.90
2023-04-16T00:12:46.403Z,65.30
2023-04-16T00:13:46.042Z,67.20
2023-04-16T00:14:45.910Z,66.50
2023-04-16T00:15:45.929Z,67.20
2023-04-16T00:16:45.973Z,67.70
2023-04-16T00:17:45.906Z,69.30
2023-04-16T00:18:45.886Z,68.00
2023-04-16T00:19:45.925Z,70.20
2023-04-16T00:20:45.872Z,70.20
2023-04-16T00:21:45.859Z,66.50
2023-04-16T00:22:45.810Z,70.60
2023-04-16T00:23:45.819Z,70.90
2023-04-16T00:24:45.778Z,72.70
2023-04-16T00:25:45.798Z,74.50
2023-04-16T00:26:45.820Z,73.00
2023-04-16T00:27:45.780Z,67.60
2023-04-16T00:28:45.735Z,71.00
2023-04-16T00:29:45.770Z,67.20
2023-04-16T00:30:45.770Z,67.90
2023-04-16T00:31:45.731Z,64.00
2023-04-16T00:32:45.779Z,73.20
2023-04-16T00:33:45.742Z,70.60
2023-04-16T00:34:45.710Z,77.80
2023-04-16T00:35:45.728Z,67.40
2023-04-16T00:36:45.756Z,69.30
2023-04-16T00:37:45.652Z,68.90
2023-04-16T00:38:45.639Z,68.90
2023-04-16T00:39:45.667Z,73.90
2023-04-16T00:40:45.649Z,74.40
2023-04-16T00:41:45.626Z,73.90
2023-04-16T00:42:45.595Z,74.00
2023-04-16T00:43:45.621Z,70.20
2023-04-16T00:44:45.602Z,68.60
2023-04-16T00:45:45.654Z,70.00
2023-04-16T00:46:45.603Z,77.70
2023-04-16T00:47:45.608Z,72.50
2023-04-16T00:48:45.562Z,74.50
2023-04-16T00:49:45.576Z,69.90
2023-04-16T00:50:45.537Z,76.90
2023-04-16T00:51:45.507Z,80.00
2023-04-16T00:52:45.466Z,73.40
2023-04-16T00:53:45.506Z,70.80
2023-04-16T00:54:45.493Z,72.40
2023-04-16T00:55:45.476Z,73.80
2023-04-16T00:56:45.446Z,76.20
2023-04-16T00:57:45.492Z,76.30
2023-04-16T00:58:45.458Z,79.20
2023-04-16T00:59:45.445Z,78.90
2023-04-16T01:00:45.402Z,77.00
2023-04-16T01:01:45.462Z,74.70
2023-04-16T01:02:45.459Z,80.10
2023-04-16T01:03:45.471Z,75.20
2023-04-16T01:04:45.382Z,76.30
2023-04-16T01:05:45.370Z,83.20
2023-04-16T01:06:45.352Z,79.00
2023-04-16T01:07:45.316Z,73.20
2023-04-16T01:08:45.348Z,78.40
2023-04-16T01:09:45.410Z,75.20
2023-04-16T01:10:45.298Z,76.60
2023-04-16T01:11:45.277Z,74.80
2023-04-16T01:12:45.337Z,76.20
2023-04-16T01:13:45.323Z,77.70
2023-04-16T01:14:45.238Z,75.60
2023-04-16T01:15:45.372Z,76.40
2023-04-16T01:16:45.272Z,76.30
2023-04-16T01:17:45.305Z,75.10
2023-04-16T01:18:45.213Z,74.70
2023-04-16T01:19:45.213Z,72.90
2023-04-16T01:20:45.241Z,73.00
2023-04-16T01:21:45.219Z,78.30
2023-04-16T01:22:45.222Z,80.50
2023-04-16T01:23:45.163Z,71.80
2023-04-16T01:24:45.168Z,72.90
2023-04-16T01:25:45.187Z,76.40
2023-04-16T01:26:45.161Z,71.30
2023-04-16T01:27:45.148Z,77.20
2023-04-16T01:28:45.125Z,72.90
2023-04-16T01:29:45.168Z,70.70
2023-04-16T01:30:45.162Z,74.70
2023-04-16T01:31:45.232Z,72.90
2023-04-16T01:32:45.109Z,69.00
2023-04-16T01:33:45.077Z,75.60
2023-04-16T01:34:45.036Z,72.40
2023-04-16T01:35:45.063Z,70.40
2023-04-16T01:36:45.015Z,70.10
2023-04-16T01:37:45.016Z,73.00
2023-04-16T01:38:45.004Z,68.80
2023-04-16T01:39:45.025Z,64.90
2023-04-16T01:40:44.956Z,72.70
2023-04-16T01:41:44.985Z,68.10
2023-04-16T01:42:44.972Z,64.50
2023-04-16T01:43:45.006Z,65.80
2023-04-16T01:44:44.917Z,67.20
2023-04-16T01:45:44.958Z,66.30
2023-04-16T01:46:44.996Z,65.10
2023-04-16T01:47:44.942Z,64.20
2023-04-16T01:48:44.935Z,62.40
2023-04-16T01:49:44.896Z,63.10
2023-04-16T01:50:44.863Z,66.00
2023-04-16T01:51:44.865Z,61.00
2023-04-16T01:52:44.859Z,64.50
2023-04-16T01:53:44.894Z,66.20
2023-04-16T01:54:44.913Z,70.50
2023-04-16T01:55:44.823Z,61.90
2023-04-16T01:56:44.792Z,65.90
2023-04-16T01:57:44.816Z,67.00
2023-04-16T01:58:44.840Z,63.80
2023-04-16T01:59:44.764Z,65.90
2023-04-16T02:00:44.768Z,70.70
2023-04-16T02:01:44.830Z,70.90
2023-04-16T02:02:44.851Z,67.60
2023-04-16T02:03:45.028Z,69.60
2023-04-16T02:04:44.723Z,69.90
2023-04-16T02:05:44.721Z,70.70
2023-04-16T02:06:44.698Z,67.20
2023-04-16T02:07:44.743Z,73.60
2023-04-16T02:08:44.681Z,69.80
2023-04-16T02:09:44.708Z,68.10
2023-04-16T02:10:44.663Z,66.10
2023-04-16T02:11:44.637Z,73.40
2023-04-16T02:12:44.642Z,72.50
2023-04-16T02:13:44.645Z,72.90
2023-04-16T02:14:44.640Z,77.60
2023-04-16T02:15:44.686Z,76.90
2023-04-16T02:16:44.665Z,74.10
2023-04-16T02:17:44.618Z,75.60
2023-04-16T02:18:44.580Z,81.40
2023-04-16T02:19:44.556Z,80.10
2023-04-16T02:20:44.587Z,77.20
2023-04-16T02:21:44.560Z,71.00
2023-04-16T02:22:44.514Z,76.90
2023-04-16T02:23:44.537Z,80.00
2023-04-16T02:24:44.523Z,80.80
2023-04-16T02:25:44.489Z,74.70
2023-04-16T02:26:44.469Z,79.00
2023-04-16T02:27:44.485Z,84.70
2023-04-16T02:28:44.449Z,79.90
2023-04-16T02:29:44.498Z,73.50
2023-04-16T02:30:44.445Z,73.50
2023-04-16T02:31:44.586Z,77.10
2023-04-16T02:32:44.404Z,79.30
2023-04-16T02:33:44.410Z,76.00
2023-04-16T02:34:44.406Z,75.50
2023-04-16T02:35:44.371Z,79.50
2023-04-16T02:36:44.365Z,72.70
2023-04-16T02:37:44.416Z,72.40
2023-04-16T02:38:44.363Z,77.00
2023-04-16T02:39:44.392Z,77.90
2023-04-16T02:40:44.330Z,81.10
2023-04-16T02:41:44.305Z,78.50
2023-04-16T02:42:44.364Z,78.80
2023-04-16T02:43:44.350Z,79.80
2023-04-16T02:44:44.283Z,78.30
2023-04-16T02:45:44.360Z,77.90
2023-04-16T02:46:44.282Z,82.90
2023-04-16T02:47:44.306Z,80.40
2023-04-16T02:48:44.280Z,82.20
2023-04-16T02:49:45.012Z,80.50
2023-04-16T02:50:44.229Z,79.80
2023-04-16T02:51:44.243Z,82.80
2023-04-16T02:52:44.215Z,76.80
2023-04-16T02:53:44.177Z,83.50
2023-04-16T02:54:44.169Z,82.10
2023-04-16T02:55:44.154Z,82.90
2023-04-16T02:56:44.186Z,82.00
2023-04-16T02:57:44.168Z,82.40
2023-04-16T02:58:44.119Z,81.40
2023-04-16T02:59:44.127Z,85.90
2023-04-16T03:00:44.150Z,87.20
2023-04-16T03:01:44.182Z,89.70
2023-04-16T03:02:44.132Z,86.80
2023-04-16T03:03:44.091Z,92.50
2023-04-16T03:04:44.107Z,94.10
2023-04-16T03:05:44.053Z,89.00
2023-04-16T03:06:44.106Z,88.10
2023-04-16T03:07:44.048Z,95.20
2023-04-16T03:08:44.023Z,89.70
2023-04-16T03:09:44.037Z,93.80
2023-04-16T03:10:43.993Z,93.70
2023-04-16T03:11:44.008Z,95.70
2023-04-16T03:12:44.031Z,93.60
2023-04-16T03:13:44.015Z,94.30
2023-04-16T03:14:43.976Z,98.90
2023-04-16T03:15:43.991Z,98.40
2023-04-16T03:16:43.976Z,87.20
2023-04-16T03:17:44.014Z,101.00
2023-04-16T03:18:43.935Z,98.10
2023-04-16T03:19:43.938Z,100.20
2023-04-16T03:20:43.914Z,96.70
2023-04-16T03:21:43.894Z,97.40
2023-04-16T03:22:43.895Z,107.40
2023-04-16T03:23:43.933Z,99.50
2023-04-16T03:24:43.859Z,95.70
2023-04-16T03:25:43.879Z,99.10
2023-04-16T03:26:43.821Z,99.20
2023-04-16T03:27:43.838Z,100.70
2023-04-16T03:28:43.807Z,101.90
2023-04-16T03:29:43.919Z,102.80
2023-04-16T03:30:43.815Z,105.10
2023-04-16T03:31:43.855Z,112.50
2023-04-16T03:32:43.864Z,104.70
2023-04-16T03:33:43.766Z,115.00
2023-04-16T03:34:43.796Z,113.30
2023-04-16T03:35:43.799Z,110.70
2023-04-16T03:36:43.747Z,108.00
2023-04-16T03:37:43.744Z,109.70
2023-04-16T03:38:43.750Z,112.20
2023-04-16T03:39:43.727Z,111.70
2023-04-16T03:40:43.703Z,109.40
2023-04-16T03:41:43.706Z,108.60
2023-04-16T03:42:43.679Z,115.80
2023-04-16T03:43:43.705Z,108.20
2023-04-16T03:44:43.672Z,105.60
2023-04-16T03:45:43.631Z,111.40
2023-04-16T03:46:43.657Z,113.60
2023-04-16T03:47:43.725Z,108.90
2023-04-16T03:48:43.626Z,110.00
2023-04-16T03:49:43.604Z,109.60
2023-04-16T03:50:43.628Z,109.20
2023-04-16T03:51:43.569Z,108.70
2023-04-16T03:52:43.618Z,108.70
2023-04-16T03:53:43.560Z,108.50
2023-04-16T03:54:43.602Z,107.90
2023-04-16T03:55:43.530Z,106.20
2023-04-16T03:56:43.481Z,118.20
2023-04-16T03:57:43.495Z,107.60
2023-04-16T03:58:43.494Z,114.30
2023-04-16T03:59:43.531Z,102.50
2023-04-16T04:00:43.475Z,106.30
2023-04-16T04:01:43.508Z,101.90
2023-04-16T04:02:43.693Z,101.40
2023-04-16T04:03:43.652Z,96.60
2023-04-16T04:04:43.580Z,107.50
2023-04-16T04:05:43.453Z,102.10
2023-04-16T04:06:43.419Z,98.00
2023-04-16T04:07:43.347Z,103.90
2023-04-16T04:08:43.352Z,100.40
2023-04-16T04:09:43.321Z,99.60
2023-04-16T04:10:43.441Z,100.10
2023-04-16T04:11:43.348Z,98.00
2023-04-16T04:12:43.274Z,100.10
2023-04-16T04:13:43.305Z,97.00
2023-04-16T04:14:43.552Z,105.30
2023-04-16T04:15:43.272Z,97.50
2023-04-16T04:16:43.289Z,102.70
2023-04-16T04:17:43.346Z,93.50
2023-04-16T04:18:44.444Z,93.70
2023-04-16T04:19:54.378Z,102.80
2023-04-16T04:20:43.221Z,96.90
2023-04-16T04:21:43.192Z,96.40
2023-04-16T04:22:43.168Z,100.10
2023-04-16T04:23:43.193Z,96.30
2023-04-16T04:24:43.185Z,99.30
2023-04-16T04:25:43.411Z,96.20
2023-04-16T04:26:43.147Z,95.20
2023-04-16T04:27:43.132Z,99.40
2023-04-16T04:28:43.148Z,97.10
2023-04-16T04:29:43.136Z,97.60
2023-04-16T04:30:43.118Z,95.30
2023-04-16T04:31:43.169Z,94.90
2023-04-16T04:32:43.170Z,92.60
2023-04-16T04:33:43.124Z,92.10
2023-04-16T04:34:43.106Z,102.70
2023-04-16T04:35:43.106Z,86.80
2023-04-16T04:36:43.033Z,98.20
2023-04-16T04:37:43.079Z,92.80
2023-04-16T04:38:43.077Z,93.90
2023-04-16T04:39:43.004Z,88.30
2023-04-16T04:40:43.056Z,85.70
2023-04-16T04:41:42.962Z,88.10
2023-04-16T04:42:43.022Z,84.30
2023-04-16T04:43:43.002Z,81.30
2023-04-16T04:44:42.969Z,82.00
2023-04-16T04:45:43.028Z,87.30
2023-04-16T04:46:42.980Z,83.90
2023-04-16T04:47:42.948Z,83.00
2023-04-16T04:48:42.953Z,88.70
2023-04-16T04:49:42.907Z,82.60
2023-04-16T04:50:42.889Z,86.80
2023-04-16T04:51:42.912Z,82.80
2023-04-16T04:52:42.942Z,80.50
2023-04-16T04:53:42.867Z,79.00
2023-04-16T04:54:42.841Z,84.50
2023-04-16T04:55:42.853Z,85.70
2023-04-16T04:56:42.808Z,87.00
2023-04-16T04:57:42.846Z,80.60
2023-04-16T04:58:42.812Z,80.20
2023-04-16T04:59:42.789Z,82.40
2023-04-16T05:00:42.812Z,80.80
2023-04-16T05:01:42.744Z,79.20
2023-04-16T05:02:43.097Z,85.10
2023-04-16T05:03:42.814Z,82.40
2023-04-16T05:04:42.767Z,77.40
2023-04-16T05:05:42.733Z,81.90
2023-04-16T05:06:42.716Z,82.70
2023-04-16T05:07:42.721Z,78.80
2023-04-16T05:08:42.686Z,82.60
2023-04-16T05:09:42.702Z,83.40
2023-04-16T05:10:42.690Z,81.50
2023-04-16T05:11:42.638Z,76.60
2023-04-16T05:12:43.055Z,76.60
2023-04-16T05:13:42.633Z,77.40
2023-04-16T05:14:42.675Z,79.60
2023-04-16T05:15:42.603Z,86.90
2023-04-16T05:16:42.644Z,79.70
2023-04-16T05:17:42.698Z,77.80
2023-04-16T05:18:42.589Z,76.40
2023-04-16T05:19:42.569Z,79.20
2023-04-16T05:20:42.644Z,78.30
2023-04-16T05:21:42.567Z,85.20
2023-04-16T05:22:42.632Z,78.20
2023-04-16T05:23:42.517Z,75.40
2023-04-16T05:24:42.520Z,77.20
2023-04-16T05:25:42.530Z,80.00
2023-04-16T05:26:42.548Z,76.10
2023-04-16T05:27:42.485Z,78.80
2023-04-16T05:28:42.544Z,78.40
2023-04-16T05:29:42.503Z,77.20
2023-04-16T05:30:42.531Z,74.50
2023-04-16T05:31:42.427Z,80.70
2023-04-16T05:32:42.509Z,85.50
2023-04-16T05:33:42.444Z,76.50
2023-04-16T05:34:42.418Z,71.70
2023-04-16T05:35:42.436Z,75.60
2023-04-16T05:36:42.381Z,73.90
2023-04-16T05:37:42.362Z,73.90
2023-04-16T05:38:42.364Z,73.80
2023-04-16T05:39:42.435Z,73.60
2023-04-16T05:40:42.368Z,73.80
2023-04-16T05:41:42.324Z,74.30
2023-04-16T05:42:42.332Z,76.00
2023-04-16T05:43:42.502Z,72.60
2023-04-16T05:44:42.329Z,68.10
2023-04-16T05:45:42.296Z,71.60
2023-04-16T05:46:42.282Z,76.10
2023-04-16T05:47:42.380Z,77.20
2023-04-16T05:48:42.301Z,70.10
2023-04-16T05:49:42.263Z,66.90
2023-04-16T05:50:42.251Z,65.90
2023-04-16T05:51:42.210Z,66.80
2023-04-16T05:52:42.344Z,65.90
2023-04-16T05:53:42.249Z,68.20
2023-04-16T05:54:42.268Z,69.10
2023-04-16T05:55:42.244Z,65.60
2023-04-16T05:56:42.198Z,66.50
2023-04-16T05:57:42.186Z,62.60
2023-04-16T05:58:42.194Z,60.50
2023-04-16T05:59:42.149Z,64.50
2023-04-16T06:00:42.187Z,60.60
2023-04-16T06:01:42.123Z,61.00
2023-04-16T06:02:42.384Z,64.80
2023-04-16T06:03:42.233Z,64.20
2023-04-16T06:04:42.084Z,59.50
2023-04-16T06:05:42.171Z,60.20
2023-04-16T06:06:42.063Z,60.40
2023-04-16T06:07:42.090Z,62.50
2023-04-16T06:08:42.023Z,60.70
2023-04-16T06:09:42.045Z,61.30
2023-04-16T06:10:42.035Z,63.40
2023-04-16T06:11:42.042Z,61.90
2023-04-16T06:12:42.004Z,61.30
2023-04-16T06:13:41.987Z,62.20
2023-04-16T06:14:42.017Z,59.40
2023-04-16T06:15:41.968Z,60.90
2023-04-16T06:16:41.976Z,60.20
2023-04-16T06:17:41.976Z,60.70
2023-04-16T06:18:41.932Z,60.10
2023-04-16T06:19:41.917Z,62.60
2023-04-16T06:20:41.921Z,64.40
2023-04-16T06:21:41.916Z,60.50
2023-04-16T06:22:41.904Z,60.80
2023-04-16T06:23:41.862Z,59.20
2023-04-16T06:24:41.869Z,60.70
2023-04-16T06:25:41.866Z,61.10
2023-04-16T06:26:41.834Z,56.40
2023-04-16T06:27:41.899Z,56.50
2023-04-16T06:28:41.804Z,59.90
2023-04-16T06:29:42.065Z,57.10
2023-04-16T06:30:43.369Z,60.30
2023-04-16T06:31:41.819Z,61.70
2023-04-16T06:32:41.870Z,62.30
2023-04-16T06:33:41.746Z,59.50
2023-04-16T06:34:41.772Z,59.60
2023-04-16T06:35:41.742Z,61.10
2023-04-16T06:36:41.738Z,60.50
2023-04-16T06:37:41.741Z,58.80
2023-04-16T06:38:41.710Z,59.80
2023-04-16T06:39:41.696Z,59.10
2023-04-16T06:40:41.677Z,60.30
2023-04-16T06:41:41.748Z,58.00
2023-04-16T06:42:43.540Z,56.90
2023-04-16T06:43:41.637Z,56.90
2023-04-16T06:44:41.719Z,57.70
2023-04-16T06:45:41.662Z,57.10
2023-04-16T06:46:41.628Z,55.70
2023-04-16T06:47:41.676Z,56.10
2023-04-16T06:48:41.628Z,56.30
2023-04-16T06:49:41.590Z,55.00
2023-04-16T06:50:41.572Z,56.60
2023-04-16T06:51:41.562Z,54.10
2023-04-16T06:52:42.327Z,51.10
2023-04-16T06:53:41.596Z,56.80
2023-04-16T06:54:41.571Z,52.30
2023-04-16T06:55:41.502Z,53.10
2023-04-16T06:56:41.510Z,55.50
2023-04-16T06:57:41.552Z,55.40
2023-04-16T06:58:41.500Z,53.60
2023-04-16T06:59:41.476Z,52.80
2023-04-16T07:00:41.537Z,55.80
2023-04-16T07:01:41.496Z,53.80
2023-04-16T07:02:41.530Z,54.60
2023-04-16T07:03:41.531Z,56.30
2023-04-16T07:04:41.489Z,53.30
2023-04-16T07:05:41.405Z,53.30
2023-04-16T07:06:41.421Z,54.70
2023-04-16T07:07:41.408Z,56.00
2023-04-16T07:08:41.418Z,56.50
2023-04-16T07:09:41.388Z,50.00
2023-04-16T07:10:41.391Z,54.50
2023-04-16T07:11:41.392Z,55.20
2023-04-16T07:12:41.359Z,52.10
2023-04-16T07:13:41.343Z,48.40
2023-04-16T07:14:41.307Z,51.80
2023-04-16T07:15:41.302Z,53.10
2023-04-16T07:16:41.395Z,53.60
2023-04-16T07:17:41.333Z,50.10
2023-04-16T07:18:41.312Z,52.20
2023-04-16T07:19:41.255Z,52.60
2023-04-16T07:20:41.323Z,49.50
2023-04-16T07:21:41.267Z,51.30
2023-04-16T07:22:41.268Z,52.50
2023-04-16T07:23:41.273Z,50.40
2023-04-16T07:24:41.305Z,51.60
2023-04-16T07:25:41.225Z,49.60
2023-04-16T07:26:41.222Z,54.50
2023-04-16T07:27:41.214Z,49.60
2023-04-16T07:28:41.216Z,49.60
2023-04-16T07:29:41.157Z,46.40
2023-04-16T07:30:41.196Z,51.10
2023-04-16T07:31:41.160Z,50.10
2023-04-16T07:32:41.178Z,47.50
2023-04-16T07:33:41.124Z,48.30
2023-04-16T07:34:41.123Z,46.10
2023-04-16T07:35:41.127Z,49.60
2023-04-16T07:36:41.119Z,47.40
2023-04-16T07:37:41.085Z,48.50
2023-04-16T07:38:41.117Z,47.80
2023-04-16T07:39:41.086Z,49.80
2023-04-16T07:40:41.054Z,46.50
2023-04-16T07:41:41.140Z,45.70
2023-04-16T07:42:41.045Z,47.20
2023-04-16T07:43:41.014Z,44.50
2023-04-16T07:44:41.077Z,46.40
2023-04-16T07:45:41.474Z,44.70
2023-04-16T07:46:46.907Z,42.40
2023-04-16T07:47:41.031Z,43.90
2023-04-16T07:48:41.006Z,46.20
2023-04-16T07:49:40.936Z,45.60
2023-04-16T07:50:40.977Z,46.60
2023-04-16T07:51:40.930Z,45.80
2023-04-16T07:52:40.920Z,42.60
2023-04-16T07:53:40.954Z,43.40
2023-04-16T07:54:40.961Z,46.20
2023-04-16T07:55:40.887Z,46.00
2023-04-16T07:56:40.946Z,45.70
2023-04-16T07:57:40.860Z,42.90
2023-04-16T07:58:41.002Z,44.60
2023-04-16T07:59:40.864Z,49.10
2023-04-16T08:00:40.857Z,42.40
2023-04-16T08:01:40.812Z,43.50
2023-04-16T08:02:40.978Z,42.70
2023-04-16T08:03:40.999Z,44.70
2023-04-16T08:04:40.958Z,46.90
2023-04-16T08:05:40.777Z,44.10
2023-04-16T08:06:40.774Z,41.80
2023-04-16T08:07:40.809Z,40.70
2023-04-16T08:08:40.790Z,42.20
2023-04-16T08:09:40.760Z,39.40
2023-04-16T08:10:40.749Z,41.80
2023-04-16T08:11:40.715Z,42.40
2023-04-16T08:12:40.748Z,39.50
2023-04-16T08:13:40.729Z,42.40
2023-04-16T08:14:40.697Z,40.90
2023-04-16T08:15:40.740Z,44.40
2023-04-16T08:16:40.726Z,39.80
2023-04-16T08:17:40.742Z,42.20
2023-04-16T08:18:40.689Z,44.30
2023-04-16T08:19:40.644Z,39.90
2023-04-16T08:20:40.666Z,45.20
2023-04-16T08:21:40.675Z,42.60
2023-04-16T08:22:40.605Z,45.80
2023-04-16T08:23:40.590Z,44.50
2023-04-16T08:24:40.597Z,40.70
2023-04-16T08:25:40.572Z,44.80
2023-04-16T08:26:40.584Z,46.00
2023-04-16T08:27:40.575Z,44.50
2023-04-16T08:28:40.555Z,46.80
2023-04-16T08:29:40.544Z,47.10
2023-04-16T08:30:40.591Z,46.10
2023-04-16T08:31:40.557Z,51.40
2023-04-16T08:32:40.575Z,47.40
2023-04-16T08:33:40.501Z,46.90
2023-04-16T08:34:40.480Z,51.30
2023-04-16T08:35:40.466Z,45.80
2023-04-16T08:36:40.475Z,46.90
2023-04-16T08:37:40.444Z,44.80
2023-04-16T08:38:40.432Z,47.50
2023-04-16T08:39:40.466Z,46.00
2023-04-16T08:40:40.450Z,44.30
2023-04-16T08:41:40.452Z,45.80
2023-04-16T08:42:40.514Z,44.00
2023-04-16T08:43:40.362Z,48.10
2023-04-16T08:44:40.406Z,44.90
2023-04-16T08:45:40.377Z,46.30
2023-04-16T08:46:40.466Z,44.50
2023-04-16T08:47:40.389Z,48.10
2023-04-16T08:48:40.387Z,40.70
2023-04-16T08:49:40.428Z,41.20
2023-04-16T08:50:40.740Z,41.40
2023-04-16T08:51:40.296Z,43.70
2023-04-16T08:52:40.329Z,47.90
2023-04-16T08:53:40.280Z,46.10
2023-04-16T08:54:40.302Z,42.10
2023-04-16T08:55:40.275Z,42.10
2023-04-16T08:56:42.882Z,44.50
2023-04-16T08:57:40.257Z,41.40
2023-04-16T08:58:40.211Z,41.70
2023-04-16T08:59:40.251Z,43.20
2023-04-16T09:00:40.207Z,42.10
2023-04-16T09:01:40.258Z,45.00
2023-04-16T09:02:40.578Z,43.90
2023-04-16T09:03:40.257Z,42.50
2023-04-16T09:04:40.306Z,43.20
2023-04-16T09:05:40.180Z,47.40
2023-04-16T09:06:40.279Z,44.40
2023-04-16T09:07:40.190Z,41.80
2023-04-16T09:08:40.149Z,44.00
2023-04-16T09:09:40.135Z,46.20
2023-04-16T09:10:40.173Z,44.50
2023-04-16T09:11:40.099Z,45.20
2023-04-16T09:12:40.088Z,42.30
2023-04-16T09:13:40.098Z,42.10
2023-04-16T09:14:40.051Z,42.00
2023-04-16T09:15:40.085Z,40.20
2023-04-16T09:16:40.235Z,38.30
2023-04-16T09:17:40.215Z,37.20
2023-04-16T09:18:40.022Z,41.70
2023-04-16T09:19:40.035Z,41.90
2023-04-16T09:20:40.029Z,38.80
2023-04-16T09:21:40.034Z,42.10
2023-04-16T09:22:40.016Z,38.30
2023-04-16T09:23:39.987Z,42.00
2023-04-16T09:24:39.962Z,43.10
2023-04-16T09:25:39.946Z,38.20
2023-04-16T09:26:39.970Z,38.30
2023-04-16T09:27:39.943Z,36.20
2023-04-16T09:28:39.947Z,36.50
2023-04-16T09:29:39.907Z,37.70
2023-04-16T09:30:39.895Z,37.30
2023-04-16T09:31:40.006Z,36.90
2023-04-16T09:32:39.932Z,37.20
2023-04-16T09:33:39.901Z,37.00
2023-04-16T09:34:39.847Z,40.50
2023-04-16T09:35:39.883Z,37.10
2023-04-16T09:36:39.827Z,34.80
2023-04-16T09:37:39.861Z,39.90
2023-04-16T09:38:39.810Z,35.60
2023-04-16T09:39:39.854Z,33.00
2023-04-16T09:40:39.791Z,34.50
2023-04-16T09:41:39.856Z,37.10
2023-04-16T09:42:39.960Z,35.40
2023-04-16T09:43:39.781Z,33.40
2023-04-16T09:44:39.741Z,33.30
2023-04-16T09:45:39.794Z,32.60
2023-04-16T09:46:39.772Z,35.20
2023-04-16T09:47:39.859Z,35.60
2023-04-16T09:48:39.726Z,37.40
2023-04-16T09:49:39.701Z,36.50
2023-04-16T09:50:39.709Z,36.40
2023-04-16T09:51:39.700Z,38.30
2023-04-16T09:52:39.730Z,36.20
2023-04-16T09:53:39.663Z,36.80
2023-04-16T09:54:39.681Z,35.70
2023-04-16T09:55:39.668Z,38.40
2023-04-16T09:56:39.613Z,35.70
2023-04-16T09:57:39.648Z,37.90
2023-04-16T09:58:39.608Z,36.10
2023-04-16T09:59:39.578Z,35.70
2023-04-16T10:00:43.225Z,33.90
2023-04-16T10:01:39.607Z,32.60
2023-04-16T10:02:39.786Z,32.60
2023-04-16T10:03:40.039Z,32.60
2023-04-16T10:04:39.604Z,33.70
2023-04-16T10:05:39.533Z,33.80
2023-04-16T10:06:39.560Z,40.10
2023-04-16T10:07:39.512Z,35.80
2023-04-16T10:08:39.553Z,35.60
2023-04-16T10:09:39.503Z,38.20
2023-04-16T10:10:39.469Z,38.40
2023-04-16T10:11:39.490Z,35.70
2023-04-16T10:12:39.480Z,35.20
2023-04-16T10:13:39.452Z,39.50
2023-04-16T10:14:39.485Z,36.80
2023-04-16T10:15:39.459Z,36.80
2023-04-16T10:16:39.526Z,35.20
2023-04-16T10:17:39.484Z,38.40
2023-04-16T10:18:39.380Z,36.80
2023-04-16T10:19:39.392Z,36.40
2023-04-16T10:20:39.476Z,35.70
2023-04-16T10:21:39.391Z,36.10
2023-04-16T10:22:39.357Z,36.20
2023-04-16T10:23:39.355Z,37.70
2023-04-16T10:24:39.357Z,36.70
2023-04-16T10:25:39.356Z,34.90
2023-04-16T10:26:39.304Z,39.70
2023-04-16T10:27:39.321Z,31.50
2023-04-16T10:28:39.320Z,43.00
2023-04-16T10:29:39.329Z,32.30
2023-04-16T10:30:39.288Z,34.10
2023-04-16T10:31:39.263Z,31.40
2023-04-16T10:32:39.242Z,33.50
2023-04-16T10:33:39.262Z,34.30
2023-04-16T10:34:39.225Z,36.10
2023-04-16T10:35:39.276Z,34.50
2023-04-16T10:36:39.188Z,33.60
2023-04-16T10:37:39.250Z,33.20
2023-04-16T10:38:39.187Z,35.00
2023-04-16T10:39:39.212Z,34.80
2023-04-16T10:40:39.168Z,33.90
2023-04-16T10:41:39.187Z,35.80
2023-04-16T10:42:39.170Z,36.70
2023-04-16T10:43:39.173Z,29.60
2023-04-16T10:44:39.110Z,32.30
2023-04-16T10:45:39.125Z,28.90
2023-04-16T10:46:39.257Z,30.90
2023-04-16T10:47:39.183Z,33.00
2023-04-16T10:48:49.251Z,31.40
2023-04-16T10:49:39.099Z,31.50
2023-04-16T10:50:39.050Z,31.80
2023-04-16T10:51:39.075Z,29.30
2023-04-16T10:52:40.260Z,31.10
2023-04-16T10:53:39.039Z,31.30
2023-04-16T10:54:38.998Z,30.70
2023-04-16T10:55:38.998Z,32.10
2023-04-16T10:56:39.005Z,33.20
2023-04-16T10:57:39.016Z,32.70
2023-04-16T10:58:38.990Z,27.70
2023-04-16T10:59:38.960Z,31.60
2023-04-16T11:00:38.931Z,27.70
2023-04-16T11:01:38.978Z,28.00
2023-04-16T11:02:39.057Z,27.60
2023-04-16T11:03:39.029Z,26.50
2023-04-16T11:04:39.073Z,28.40
2023-04-16T11:05:38.943Z,26.20
2023-04-16T11:06:38.900Z,27.10
2023-04-16T11:07:38.901Z,32.30
2023-04-16T11:08:51.197Z,29.80
2023-04-16T11:09:38.880Z,27.10
2023-04-16T11:10:38.853Z,25.10
2023-04-16T11:11:38.860Z,27.50
2023-04-16T11:12:38.825Z,26.70
2023-04-16T11:13:38.813Z,26.50
2023-04-16T11:14:38.779Z,26.00
2023-04-16T11:15:39.604Z,29.30
2023-04-16T11:16:38.812Z,27.60
2023-04-16T11:17:38.794Z,25.10
2023-04-16T11:18:38.750Z,28.20
2023-04-16T11:19:38.756Z,24.80
2023-04-16T11:20:38.789Z,25.10
2023-04-16T11:21:38.728Z,26.10
2023-04-16T11:22:38.770Z,27.60
2023-04-16T11:23:38.684Z,25.00
2023-04-16T11:24:38.733Z,25.40
2023-04-16T11:25:39.495Z,21.30
2023-04-16T11:26:38.691Z,21.80
2023-04-16T11:27:38.707Z,21.00
2023-04-16T11:28:38.646Z,22.70
2023-04-16T11:29:38.657Z,22.30
2023-04-16T11:30:38.644Z,20.90
2023-04-16T11:31:38.663Z,21.70
2023-04-16T11:32:38.618Z,19.80
2023-04-16T11:33:38.603Z,21.10
2023-04-16T11:34:38.578Z,21.80
2023-04-16T11:35:38.632Z,20.90
2023-04-16T11:36:38.557Z,21.90
2023-04-16T11:37:38.551Z,21.70
2023-04-16T11:38:38.583Z,19.50
2023-04-16T11:39:38.558Z,20.90
2023-04-16T11:40:38.566Z,19.90
2023-04-16T11:41:38.538Z,19.80
2023-04-16T11:42:38.551Z,20.20
2023-04-16T11:43:38.528Z,20.50
2023-04-16T11:44:38.473Z,19.10
2023-04-16T11:45:38.454Z,19.50
2023-04-16T11:46:38.480Z,21.60
2023-04-16T11:47:38.448Z,19.30
2023-04-16T11:48:38.506Z,24.20
2023-04-16T11:49:38.451Z,21.60
2023-04-16T11:50:38.410Z,23.90
2023-04-16T11:51:38.414Z,20.90
2023-04-16T11:52:38.435Z,20.80
2023-04-16T11:53:38.393Z,21.20
2023-04-16T11:54:38.363Z,23.00
2023-04-16T11:55:38.376Z,22.10
2023-04-16T11:56:38.327Z,21.60
2023-04-16T11:57:38.383Z,21.50
2023-04-16T11:58:38.332Z,21.30
2023-04-16T11:59:38.442Z,21.40
2023-04-16T12:00:38.301Z,21.90
2023-04-16T12:01:38.369Z,22.50
2023-04-16T12:02:38.402Z,21.80
2023-04-16T12:03:38.444Z,20.60
2023-04-16T12:04:38.386Z,22.20
2023-04-16T12:05:38.268Z,18.60
2023-04-16T12:06:38.228Z,21.40
2023-04-16T12:07:38.248Z,20.90
2023-04-16T12:08:38.204Z,21.70
2023-04-16T12:09:40.518Z,21.70
2023-04-16T12:10:38.236Z,18.50
2023-04-16T12:11:38.177Z,21.00
2023-04-16T12:12:38.194Z,21.10
2023-04-16T12:13:38.173Z,20.70
2023-04-16T12:14:38.142Z,20.40
2023-04-16T12:15:38.157Z,20.90
2023-04-16T12:16:38.192Z,19.80
2023-04-16T12:17:38.196Z,20.30
2023-04-16T12:18:38.121Z,21.00
2023-04-16T12:19:38.094Z,20.50
2023-04-16T12:20:38.109Z,20.60
2023-04-16T12:21:38.106Z,21.40
2023-04-16T12:22:38.083Z,20.80
2023-04-16T12:23:38.051Z,22.90
2023-04-16T12:24:38.038Z,22.70
2023-04-16T12:25:38.101Z,22.30
2023-04-16T12:26:38.178Z,22.00
2023-04-16T12:27:38.123Z,19.90
2023-04-16T12:28:38.005Z,23.40
2023-04-16T12:29:37.994Z,19.90
2023-04-16T12:30:37.984Z,23.50
2023-04-16T12:31:38.001Z,21.20
2023-04-16T12:32:38.033Z,23.70
2023-04-16T12:33:37.965Z,21.00
2023-04-16T12:34:48.630Z,22.20
2023-04-16T12:35:37.958Z,21.70
2023-04-16T12:36:37.923Z,23.40
2023-04-16T12:37:37.954Z,21.80
2023-04-16T12:38:37.902Z,21.50
2023-04-16T12:39:37.946Z,21.90
2023-04-16T12:40:37.880Z,25.50
2023-04-16T12:41:37.859Z,22.90
2023-04-16T12:42:37.865Z,22.90
2023-04-16T12:43:37.896Z,24.10
2023-04-16T12:44:37.929Z,22.80
2023-04-16T12:45:37.822Z,21.60
2023-04-16T12:46:37.896Z,24.50
2023-04-16T12:47:37.905Z,22.80
2023-04-16T12:48:37.782Z,22.90
2023-04-16T12:49:37.809Z,23.20
2023-04-16T12:50:37.801Z,23.90
2023-04-16T12:51:37.766Z,24.40